createdAt,value
2018-07-06T00:00:35.110Z,98064.81
2018-07-06T00:03:15.708Z,98025.23
2018-07-06T00:05:55.412Z,98017.12
2018-07-06T00:08:35.002Z,98005.95
2018-07-06T00:11:14.857Z,97990.73
2018-07-06T00:13:54.644Z,97990.73
2018-07-06T00:16:34.338Z,97928.84
2018-07-06T00:19:14.018Z,97991.75
2018-07-06T00:21:54.385Z,97996.83
2018-07-06T00:24:33.878Z,97953.20
2018-07-06T00:27:13.790Z,97962.33
2018-07-06T00:29:53.598Z,97970.45
2018-07-06T00:32:33.361Z,97981.61
2018-07-06T00:35:12.992Z,97972.47
2018-07-06T00:37:52.942Z,97953.20
2018-07-06T00:40:33.162Z,97944.06
2018-07-06T00:43:12.706Z,97966.38
2018-07-06T00:45:52.941Z,97954.21
2018-07-06T00:48:32.498Z,97940.00
2018-07-06T00:51:12.458Z,97922.75
2018-07-06T00:53:52.166Z,97884.20
2018-07-06T00:56:31.820Z,97909.56
2018-07-06T00:59:11.741Z,97911.59
2018-07-06T01:01:51.424Z,97918.70
2018-07-06T01:04:31.078Z,97891.30
2018-07-06T01:07:10.710Z,97923.77
2018-07-06T01:09:50.501Z,97925.80
2018-07-06T01:12:35.522Z,97947.11
2018-07-06T01:15:20.645Z,97928.84
2018-07-06T01:18:00.271Z,97957.25
2018-07-06T01:20:40.056Z,97885.21
2018-07-06T01:23:19.795Z,97903.47
2018-07-06T01:25:59.567Z,97913.63
2018-07-06T01:28:39.304Z,97935.94
2018-07-06T01:31:19.322Z,97946.09
2018-07-06T01:33:59.051Z,97929.86
2018-07-06T01:36:38.862Z,97918.70
2018-07-06T01:39:18.530Z,97951.16
2018-07-06T01:41:58.337Z,97937.97
2018-07-06T01:44:37.979Z,97930.88
2018-07-06T01:47:17.725Z,97923.77
2018-07-06T01:49:57.390Z,97951.16
2018-07-06T01:52:37.207Z,97886.23
2018-07-06T01:55:16.801Z,97891.30
2018-07-06T01:57:56.649Z,97914.64
2018-07-06T02:00:36.279Z,97930.88
2018-07-06T02:03:16.435Z,97922.75
2018-07-06T02:05:56.177Z,97901.45
2018-07-06T02:08:36.245Z,97903.47
2018-07-06T02:11:15.966Z,97910.58
2018-07-06T02:13:56.043Z,97892.31
2018-07-06T02:16:35.799Z,97865.93
2018-07-06T02:19:15.597Z,97850.71
2018-07-06T02:21:55.383Z,97885.21
2018-07-06T02:24:35.135Z,97838.53
2018-07-06T02:27:14.876Z,97851.72
2018-07-06T02:29:54.546Z,97822.30
2018-07-06T02:32:34.331Z,97852.73
2018-07-06T02:35:14.075Z,97854.77
2018-07-06T02:37:53.842Z,97785.77
2018-07-06T02:40:33.898Z,97802.01
2018-07-06T02:43:13.726Z,97797.95
2018-07-06T02:45:53.931Z,97848.68
2018-07-06T02:48:33.635Z,97836.50
2018-07-06T02:51:13.646Z,97815.20
2018-07-06T02:53:53.439Z,97807.08
2018-07-06T02:56:33.184Z,97817.23
2018-07-06T02:59:12.931Z,97827.38
2018-07-06T03:01:52.802Z,97808.09
2018-07-06T03:04:32.497Z,97805.05
2018-07-06T03:07:12.591Z,97814.19
2018-07-06T03:09:52.255Z,97800.99
2018-07-06T03:12:32.060Z,97816.21
2018-07-06T03:15:11.767Z,97779.69
2018-07-06T03:17:51.638Z,97791.86
2018-07-06T03:20:31.506Z,97792.88
2018-07-06T03:23:11.326Z,97833.46
2018-07-06T03:25:51.147Z,97791.86
2018-07-06T03:28:30.925Z,97796.94
2018-07-06T03:31:10.370Z,97808.09
2018-07-06T03:33:50.157Z,97850.71
2018-07-06T03:36:29.965Z,97847.67
2018-07-06T03:39:09.827Z,97817.23
2018-07-06T03:41:49.454Z,97840.56
2018-07-06T03:44:29.262Z,97828.39
2018-07-06T03:47:09.061Z,97845.64
2018-07-06T03:49:48.814Z,97827.38
2018-07-06T03:52:28.537Z,97856.80
2018-07-06T03:55:08.314Z,97838.53
2018-07-06T03:57:47.971Z,97826.36
2018-07-06T04:00:27.838Z,97840.56
2018-07-06T04:03:07.514Z,97812.16
2018-07-06T04:05:47.269Z,97829.41
2018-07-06T04:08:27.220Z,97817.23
2018-07-06T04:11:06.973Z,97803.02
2018-07-06T04:13:46.694Z,97816.21
2018-07-06T04:16:26.374Z,97856.80
2018-07-06T04:19:10.993Z,97824.33
2018-07-06T04:21:51.505Z,97812.16
2018-07-06T04:24:31.750Z,97817.23
2018-07-06T04:27:12.265Z,97826.36
2018-07-06T04:29:52.255Z,97802.01
2018-07-06T04:32:32.592Z,97800.99
2018-07-06T04:35:12.565Z,97795.92
2018-07-06T04:37:52.366Z,97779.69
2018-07-06T04:40:32.421Z,97771.57
2018-07-06T04:43:12.021Z,97746.20
2018-07-06T04:45:51.946Z,97748.23
2018-07-06T04:48:31.680Z,97742.14
2018-07-06T04:51:11.884Z,97797.95
2018-07-06T04:53:51.831Z,97764.47
2018-07-06T04:56:31.635Z,97700.55
2018-07-06T04:59:11.370Z,97703.59
2018-07-06T05:01:52.153Z,97708.66
2018-07-06T05:04:31.911Z,97707.64
2018-07-06T05:07:11.707Z,97688.37
2018-07-06T05:09:51.474Z,97719.82
2018-07-06T05:12:31.287Z,97709.67
2018-07-06T05:15:10.905Z,97665.03
2018-07-06T05:17:50.675Z,97666.05
2018-07-06T05:20:30.449Z,97676.19
2018-07-06T05:23:10.032Z,97626.48
2018-07-06T05:25:49.840Z,97499.66
2018-07-06T05:28:30.051Z,97598.06
2018-07-06T05:31:09.657Z,97533.14
2018-07-06T05:33:49.459Z,97494.58
2018-07-06T05:36:29.247Z,97463.13
2018-07-06T05:39:08.938Z,97419.51
2018-07-06T05:41:48.850Z,97495.59
2018-07-06T05:44:29.002Z,97478.34
2018-07-06T05:47:08.802Z,97503.72
2018-07-06T05:49:48.525Z,97465.16
2018-07-06T05:52:28.405Z,97508.78
2018-07-06T05:55:08.181Z,97512.84
2018-07-06T05:57:47.840Z,97480.38
2018-07-06T06:00:27.602Z,97524.00
2018-07-06T06:03:07.282Z,97525.02
2018-07-06T06:05:46.967Z,97506.76
2018-07-06T06:08:14.254Z,97544.30
2018-07-06T06:10:42.793Z,97421.53
2018-07-06T06:13:11.322Z,97387.04
2018-07-06T06:15:39.809Z,97321.09
2018-07-06T06:18:08.343Z,97324.14
2018-07-06T06:20:36.886Z,97298.78
2018-07-06T06:23:05.447Z,97309.94
2018-07-06T06:25:33.942Z,97332.25
2018-07-06T06:28:02.940Z,97347.48
2018-07-06T06:30:31.510Z,97347.48
2018-07-06T06:33:00.107Z,97327.19
2018-07-06T06:35:28.646Z,97341.39
2018-07-06T06:37:57.650Z,97296.75
2018-07-06T06:40:26.309Z,97287.62
2018-07-06T06:42:54.878Z,97220.66
2018-07-06T06:45:23.450Z,97226.75
2018-07-06T06:47:52.004Z,97273.41
2018-07-06T06:50:20.521Z,97273.41
2018-07-06T06:52:49.199Z,97220.66
2018-07-06T06:55:17.728Z,97247.03
2018-07-06T06:57:46.339Z,97296.75
2018-07-06T07:00:14.854Z,97271.39
2018-07-06T07:02:43.529Z,97338.34
2018-07-06T07:05:12.056Z,97341.39
2018-07-06T07:07:40.582Z,97162.84
2018-07-06T07:10:09.148Z,97075.59
2018-07-06T07:12:37.662Z,97194.28
2018-07-06T07:15:06.471Z,97274.43
2018-07-06T07:17:35.012Z,97326.17
2018-07-06T07:20:04.353Z,97264.28
2018-07-06T07:22:32.929Z,97218.63
2018-07-06T07:25:01.556Z,97224.72
2018-07-06T07:27:30.118Z,97176.02
2018-07-06T07:29:58.774Z,97064.44
2018-07-06T07:32:27.323Z,97189.21
2018-07-06T07:34:55.898Z,97188.20
2018-07-06T07:37:24.421Z,97188.20
2018-07-06T07:39:53.363Z,97101.97
2018-07-06T07:42:21.931Z,97108.06
2018-07-06T07:44:50.468Z,97141.53
2018-07-06T07:47:19.454Z,97119.22
2018-07-06T07:49:48.402Z,97195.30
2018-07-06T07:52:28.231Z,97165.88
2018-07-06T07:54:57.059Z,97069.51
2018-07-06T07:57:25.562Z,97129.36
2018-07-06T07:59:55.594Z,97219.64
2018-07-06T08:02:24.133Z,97188.20
2018-07-06T08:04:53.664Z,97161.82
2018-07-06T08:07:22.594Z,97145.59
2018-07-06T08:09:51.132Z,97196.31
2018-07-06T08:12:19.649Z,97130.38
2018-07-06T08:14:49.319Z,97021.83
2018-07-06T08:17:17.825Z,96989.37
2018-07-06T08:19:46.321Z,97061.39
2018-07-06T08:22:15.015Z,97024.88
2018-07-06T08:24:43.528Z,97006.61
2018-07-06T08:27:12.157Z,96999.52
2018-07-06T08:29:40.922Z,96891.98
2018-07-06T08:32:09.406Z,96939.66
2018-07-06T08:34:49.096Z,96844.31
2018-07-06T08:37:33.302Z,96804.75
2018-07-06T08:40:01.847Z,96947.78
2018-07-06T08:42:31.637Z,96953.86
2018-07-06T08:45:01.507Z,96952.85
2018-07-06T08:47:30.173Z,96857.50
2018-07-06T08:49:59.377Z,96876.77
2018-07-06T08:52:28.079Z,96904.16
2018-07-06T08:54:56.641Z,96918.36
2018-07-06T08:57:26.505Z,96838.22
2018-07-06T08:59:55.262Z,96840.25
2018-07-06T09:02:24.187Z,96768.23
2018-07-06T09:04:54.269Z,96854.45
2018-07-06T09:07:23.014Z,96841.27
2018-07-06T09:09:52.391Z,96819.97
2018-07-06T09:12:20.938Z,96786.49
2018-07-06T09:14:49.463Z,96803.73
2018-07-06T09:17:18.955Z,96790.55
2018-07-06T09:19:48.027Z,96726.64
2018-07-06T09:22:16.984Z,96700.27
2018-07-06T09:24:46.938Z,96608.98
2018-07-06T09:27:15.798Z,96682.02
2018-07-06T09:29:44.310Z,96750.98
2018-07-06T09:32:13.026Z,96720.56
2018-07-06T09:34:41.879Z,96694.19
2018-07-06T09:37:10.466Z,96701.29
2018-07-06T09:39:40.088Z,96618.11
2018-07-06T09:42:08.658Z,96646.52
2018-07-06T09:44:37.201Z,96736.79
2018-07-06T09:47:05.935Z,96730.70
2018-07-06T09:49:34.438Z,96618.11
2018-07-06T09:52:03.541Z,96613.04
2018-07-06T09:54:31.973Z,96520.74
2018-07-06T09:57:00.473Z,96395.98
2018-07-06T09:59:28.978Z,96489.30
2018-07-06T10:01:57.571Z,96565.38
2018-07-06T10:04:26.408Z,96493.36
2018-07-06T10:06:54.869Z,96484.23
2018-07-06T10:09:23.453Z,96489.30
2018-07-06T10:11:52.147Z,96459.89
2018-07-06T10:14:20.705Z,96450.76
2018-07-06T10:16:49.255Z,96399.03
2018-07-06T10:19:17.754Z,96484.23
2018-07-06T10:21:46.293Z,96501.47
2018-07-06T10:24:14.846Z,96449.74
2018-07-06T10:26:44.281Z,96395.98
2018-07-06T10:29:22.026Z,96412.22
2018-07-06T10:32:26.642Z,96567.40
2018-07-06T10:34:55.461Z,96566.38
2018-07-06T10:37:24.670Z,96436.56
2018-07-06T10:39:53.745Z,96462.93
2018-07-06T10:42:22.125Z,96436.56
2018-07-06T10:44:50.633Z,96320.94
2018-07-06T10:47:19.202Z,96416.27
2018-07-06T10:49:47.677Z,96395.98
2018-07-06T10:52:16.860Z,96450.76
2018-07-06T10:54:45.869Z,96319.92
2018-07-06T10:57:14.370Z,96403.09
2018-07-06T10:59:42.945Z,96399.03
2018-07-06T11:02:11.482Z,96428.44
2018-07-06T11:04:40.101Z,96281.37
2018-07-06T11:07:08.750Z,96369.62
2018-07-06T11:09:37.277Z,96289.49
2018-07-06T11:12:05.930Z,96282.39
2018-07-06T11:14:34.445Z,96316.88
2018-07-06T11:17:02.961Z,96311.80
2018-07-06T11:19:31.471Z,96255.02
2018-07-06T11:21:59.973Z,96214.44
2018-07-06T11:24:28.962Z,96155.62
2018-07-06T11:29:32.407Z,96268.20
2018-07-06T11:32:00.921Z,96194.16
2018-07-06T11:34:29.433Z,96285.44
2018-07-06T11:36:58.062Z,96179.96
2018-07-06T11:39:26.690Z,96163.73
2018-07-06T11:41:55.219Z,96128.23
2018-07-06T11:44:23.790Z,96144.47
2018-07-06T11:46:52.321Z,96041.02
2018-07-06T11:49:21.747Z,96088.69
2018-07-06T11:51:50.262Z,96133.31
2018-07-06T11:54:18.771Z,96148.52
2018-07-06T11:56:47.351Z,96112.02
2018-07-06T11:59:15.871Z,96035.95
2018-07-06T12:01:44.433Z,96000.45
2018-07-06T12:04:13.100Z,95998.43
2018-07-06T12:06:41.650Z,96029.87
2018-07-06T12:09:10.176Z,96060.29
2018-07-06T12:11:38.864Z,96087.67
2018-07-06T12:14:07.474Z,96090.72
2018-07-06T12:16:35.978Z,95889.92
2018-07-06T12:19:04.546Z,96001.47
2018-07-06T12:21:33.349Z,95993.36
2018-07-06T12:24:01.843Z,96102.88
2018-07-06T12:26:30.326Z,96046.09
2018-07-06T12:28:59.013Z,96109.98
2018-07-06T12:31:27.554Z,96100.86
2018-07-06T12:33:56.041Z,95975.10
2018-07-06T12:36:24.548Z,95910.20
2018-07-06T12:38:53.098Z,96046.09
2018-07-06T12:41:21.673Z,96022.77
2018-07-06T12:43:50.635Z,96046.09
2018-07-06T12:46:19.193Z,96068.41
2018-07-06T12:48:47.854Z,96029.87
2018-07-06T12:51:16.393Z,96072.46
2018-07-06T12:53:44.877Z,95912.23
2018-07-06T12:56:13.381Z,95864.56
2018-07-06T12:58:42.392Z,95958.88
2018-07-06T13:01:10.837Z,95916.28
2018-07-06T13:03:39.398Z,95917.30
2018-07-06T13:06:08.049Z,96024.80
2018-07-06T13:08:36.656Z,95906.14
2018-07-06T13:11:05.222Z,95928.45
2018-07-06T13:13:33.742Z,95892.96
2018-07-06T13:16:02.314Z,95877.75
2018-07-06T13:18:31.098Z,95881.81
2018-07-06T13:20:59.613Z,95998.43
2018-07-06T13:23:28.096Z,96119.11
2018-07-06T13:25:56.817Z,95999.44
2018-07-06T13:28:25.346Z,95970.03
2018-07-06T13:30:53.988Z,96012.63
2018-07-06T13:33:22.900Z,95827.05
2018-07-06T13:35:51.390Z,95910.20
2018-07-06T13:38:19.901Z,95892.96
2018-07-06T13:40:48.419Z,95862.54
2018-07-06T13:43:16.938Z,95872.68
2018-07-06T13:45:45.530Z,95876.73
2018-07-06T13:48:14.042Z,95918.31
2018-07-06T13:50:42.784Z,95912.23
2018-07-06T13:53:11.482Z,95826.03
2018-07-06T13:55:40.094Z,95828.06
2018-07-06T13:58:08.734Z,95763.16
2018-07-06T14:00:37.810Z,95840.23
2018-07-06T14:03:06.543Z,95999.44
2018-07-06T14:05:35.581Z,95965.98
2018-07-06T14:08:04.079Z,95939.61
2018-07-06T14:10:32.573Z,95892.96
2018-07-06T14:13:01.097Z,95804.73
2018-07-06T14:15:29.689Z,95718.55
2018-07-06T14:17:58.225Z,95702.31
2018-07-06T14:20:26.937Z,95697.25
2018-07-06T14:22:55.443Z,95654.66
2018-07-06T14:25:23.969Z,95744.91
2018-07-06T14:27:52.505Z,95670.88
2018-07-06T14:30:21.055Z,95651.62
2018-07-06T14:32:49.737Z,95677.98
2018-07-06T14:35:18.225Z,95732.73
2018-07-06T14:37:46.692Z,95525.88
2018-07-06T14:40:15.647Z,95465.05
2018-07-06T14:42:44.175Z,95510.67
2018-07-06T14:45:12.693Z,95449.83
2018-07-06T14:47:41.298Z,95622.21
2018-07-06T14:50:10.763Z,95549.20
2018-07-06T14:52:39.392Z,95554.27
2018-07-06T14:55:07.926Z,95638.44
2018-07-06T14:57:36.498Z,95590.78
2018-07-06T15:00:05.737Z,95761.13
2018-07-06T15:02:34.294Z,95736.80
2018-07-06T15:05:02.802Z,95672.91
2018-07-06T15:07:31.522Z,95660.74
2018-07-06T15:10:00.120Z,95761.13
2018-07-06T15:12:28.714Z,95696.23
2018-07-06T15:14:57.246Z,95768.23
2018-07-06T15:17:25.746Z,95784.45
2018-07-06T15:19:54.370Z,95728.69
2018-07-06T15:22:22.847Z,95809.80
2018-07-06T15:24:51.841Z,95797.64
2018-07-06T15:27:20.407Z,95742.88
2018-07-06T15:29:48.919Z,95721.58
2018-07-06T15:32:17.594Z,95849.36
2018-07-06T15:34:46.110Z,95728.69
2018-07-06T15:37:14.699Z,95650.60
2018-07-06T15:39:43.358Z,95756.06
2018-07-06T15:42:12.320Z,95770.27
2018-07-06T15:44:40.886Z,95772.29
2018-07-06T15:47:09.420Z,95760.12
2018-07-06T15:49:37.992Z,95687.11
2018-07-06T15:52:06.476Z,95779.38
2018-07-06T15:54:34.999Z,95811.84
2018-07-06T15:57:04.029Z,95871.67
2018-07-06T15:59:32.564Z,95792.56
2018-07-06T16:02:01.057Z,95822.98
2018-07-06T16:04:29.597Z,95786.48
2018-07-06T16:06:58.123Z,95698.26
2018-07-06T16:09:26.847Z,95779.38
2018-07-06T16:11:55.391Z,95753.02
2018-07-06T16:14:23.895Z,95750.99
2018-07-06T16:16:52.581Z,95765.19
2018-07-06T16:19:21.091Z,95913.25
2018-07-06T16:21:49.591Z,95911.22
2018-07-06T16:24:18.131Z,95970.03
2018-07-06T16:26:46.648Z,95777.36
2018-07-06T16:29:15.879Z,95866.59
2018-07-06T16:31:44.398Z,95932.52
2018-07-06T16:34:13.081Z,95896.00
2018-07-06T16:36:41.603Z,95922.37
2018-07-06T16:39:10.567Z,95903.10
2018-07-06T16:41:39.121Z,95922.37
2018-07-06T16:44:07.667Z,95907.16
2018-07-06T16:46:36.181Z,95919.33
2018-07-06T16:49:04.681Z,95863.55
2018-07-06T16:51:33.572Z,95851.38
2018-07-06T16:54:02.076Z,95876.73
2018-07-06T16:56:30.590Z,95880.79
2018-07-06T16:58:59.209Z,95838.20
2018-07-06T17:01:27.714Z,95919.33
2018-07-06T17:03:56.221Z,95969.02
2018-07-06T17:06:24.727Z,95930.48
2018-07-06T17:08:53.254Z,95934.54
2018-07-06T17:11:22.228Z,95966.99
2018-07-06T17:13:50.955Z,95987.27
2018-07-06T17:16:19.439Z,95880.79
2018-07-06T17:18:48.047Z,95875.72
2018-07-06T17:21:16.646Z,95890.94
2018-07-06T17:23:45.196Z,95898.03
2018-07-06T17:26:13.736Z,95926.43
2018-07-06T17:28:42.245Z,95944.68
2018-07-06T17:31:10.874Z,95997.41
2018-07-06T17:33:39.882Z,96011.61
2018-07-06T17:36:08.939Z,96008.57
2018-07-06T17:38:37.504Z,96026.83
2018-07-06T17:41:06.209Z,96019.72
2018-07-06T17:43:34.726Z,95975.10
2018-07-06T17:46:03.243Z,96055.22
2018-07-06T17:48:33.003Z,96037.98
2018-07-06T17:51:01.591Z,96044.06
2018-07-06T17:53:30.529Z,96073.47
2018-07-06T17:55:59.046Z,96055.22
2018-07-06T17:58:27.536Z,96021.75
2018-07-06T18:00:56.234Z,95930.48
2018-07-06T18:03:24.737Z,95880.79
2018-07-06T18:05:53.397Z,95819.95
2018-07-06T18:08:22.046Z,95790.54
2018-07-06T18:10:50.562Z,95821.98
2018-07-06T18:13:19.081Z,95690.15
2018-07-06T18:15:48.274Z,95616.13
2018-07-06T18:18:16.830Z,95717.53
2018-07-06T18:20:45.379Z,96042.03
2018-07-06T18:23:14.466Z,96200.25
2018-07-06T18:25:42.949Z,96271.23
2018-07-06T18:28:11.458Z,96377.73
2018-07-06T18:30:40.030Z,96337.16
2018-07-06T18:33:08.544Z,96379.77
2018-07-06T18:35:37.073Z,96429.45
2018-07-06T18:38:05.642Z,96409.17
2018-07-06T18:40:34.184Z,96523.78
2018-07-06T18:43:02.690Z,96523.78
2018-07-06T18:45:31.394Z,96539.00
2018-07-06T18:47:59.974Z,96571.45
2018-07-06T18:50:28.520Z,96623.19
2018-07-06T18:52:57.040Z,96623.19
2018-07-06T18:55:25.596Z,96621.16
2018-07-06T18:57:54.476Z,96639.41
2018-07-06T19:00:22.995Z,96656.66
2018-07-06T19:02:51.505Z,96664.77
2018-07-06T19:05:20.382Z,96671.88
2018-07-06T19:07:48.905Z,96722.59
2018-07-06T19:10:17.405Z,96740.84
2018-07-06T19:12:45.913Z,96746.94
2018-07-06T19:15:14.446Z,96755.05
2018-07-06T19:17:42.974Z,96778.38
2018-07-06T19:20:11.528Z,96798.66
2018-07-06T19:22:40.006Z,96873.73
2018-07-06T19:25:08.614Z,96875.75
2018-07-06T19:27:37.400Z,96866.63
2018-07-06T19:30:05.922Z,96819.97
2018-07-06T19:32:34.470Z,96871.70
2018-07-06T19:35:02.966Z,96842.28
2018-07-06T19:37:31.492Z,96907.20
2018-07-06T19:40:00.227Z,96953.86
2018-07-06T19:42:29.047Z,96908.22
2018-07-06T19:44:57.557Z,97011.69
2018-07-06T19:47:26.047Z,96990.38
2018-07-06T19:49:54.891Z,96990.38
2018-07-06T19:52:23.577Z,96995.45
2018-07-06T19:54:52.118Z,97027.92
2018-07-06T19:57:20.647Z,97046.17
2018-07-06T19:59:49.186Z,97109.07
2018-07-06T20:02:17.747Z,97128.34
2018-07-06T20:04:46.306Z,97116.17
2018-07-06T20:07:14.790Z,97141.53
2018-07-06T20:09:43.804Z,97178.05
2018-07-06T20:12:12.376Z,97176.02
2018-07-06T20:14:40.868Z,97176.02
2018-07-06T20:17:09.590Z,97215.59
2018-07-06T20:19:38.095Z,97198.34
2018-07-06T20:22:06.616Z,97252.11
2018-07-06T20:24:35.598Z,97254.14
2018-07-06T20:27:05.017Z,97288.63
2018-07-06T20:29:33.581Z,97306.89
2018-07-06T20:32:02.130Z,97326.17
2018-07-06T20:34:30.938Z,97347.48
2018-07-06T20:36:59.437Z,97355.59
2018-07-06T20:39:27.914Z,97348.48
2018-07-06T20:41:56.519Z,97379.94
2018-07-06T20:44:25.026Z,97409.36
2018-07-06T20:46:54.483Z,97414.43
2018-07-06T20:49:23.314Z,97412.41
2018-07-06T20:51:51.851Z,97399.22
2018-07-06T20:54:20.412Z,97391.09
2018-07-06T20:56:49.018Z,97438.78
2018-07-06T20:59:17.743Z,97473.27
2018-07-06T21:01:46.501Z,97469.22
2018-07-06T21:04:15.034Z,97452.98
2018-07-06T21:06:43.550Z,97493.56
2018-07-06T21:09:12.091Z,97508.78
2018-07-06T21:11:40.657Z,97540.23
2018-07-06T21:14:09.171Z,97498.64
2018-07-06T21:16:37.815Z,97514.88
2018-07-06T21:19:06.620Z,97545.31
2018-07-06T21:21:35.168Z,97517.92
2018-07-06T21:24:03.665Z,97569.66
2018-07-06T21:26:32.332Z,97591.98
2018-07-06T21:29:00.816Z,97580.82
2018-07-06T21:31:29.317Z,97575.75
2018-07-06T21:33:58.270Z,97627.48
2018-07-06T21:36:26.814Z,97585.89
2018-07-06T21:38:55.345Z,97640.68
2018-07-06T21:41:23.890Z,97623.44
2018-07-06T21:43:52.706Z,97663.00
2018-07-06T21:46:21.316Z,97620.39
2018-07-06T21:48:49.960Z,97661.98
2018-07-06T21:51:19.542Z,97638.66
2018-07-06T21:53:48.588Z,97672.14
2018-07-06T21:56:17.159Z,97699.53
2018-07-06T21:58:45.662Z,97682.28
2018-07-06T22:01:14.904Z,97690.40
2018-07-06T22:03:43.381Z,97681.27
2018-07-06T22:06:12.742Z,97665.03
2018-07-06T22:08:41.255Z,97694.45
2018-07-06T22:11:09.763Z,97717.80
2018-07-06T22:13:38.430Z,97714.75
2018-07-06T22:16:07.061Z,97711.70
2018-07-06T22:18:35.568Z,97759.39
2018-07-06T22:21:04.103Z,97737.07
2018-07-06T22:23:32.599Z,97775.63
2018-07-06T22:26:01.146Z,97750.27
2018-07-06T22:28:29.626Z,97751.27
2018-07-06T22:30:58.218Z,97770.55
2018-07-06T22:33:26.797Z,97769.54
2018-07-06T22:35:55.479Z,97782.73
2018-07-06T22:38:23.975Z,97779.69
2018-07-06T22:40:52.650Z,97834.48
2018-07-06T22:43:21.497Z,97808.09
2018-07-06T22:45:50.508Z,97843.61
2018-07-06T22:48:19.064Z,97820.27
2018-07-06T22:50:47.678Z,97865.93
2018-07-06T22:53:16.198Z,97841.58
2018-07-06T22:55:44.740Z,97880.13
2018-07-06T22:58:13.338Z,97869.99
2018-07-06T23:00:41.884Z,97887.23
2018-07-06T23:03:10.406Z,97895.36
2018-07-06T23:05:38.930Z,97897.39
2018-07-06T23:08:07.947Z,97905.50
2018-07-06T23:10:36.454Z,97863.91
2018-07-06T23:13:04.948Z,97903.47
2018-07-06T23:15:33.488Z,97859.84
2018-07-06T23:18:01.994Z,97860.86
2018-07-06T23:20:30.547Z,97916.66
2018-07-06T23:23:04.422Z,97863.91
2018-07-06T23:25:37.102Z,97863.91
2018-07-06T23:28:05.795Z,97880.13
2018-07-06T23:30:34.345Z,97884.20
2018-07-06T23:33:03.959Z,97917.68
2018-07-06T23:35:32.700Z,97968.41
2018-07-06T23:38:01.291Z,97938.98
2018-07-06T23:40:30.022Z,97937.97
2018-07-06T23:42:58.670Z,97949.13
2018-07-06T23:45:27.213Z,97979.58
2018-07-06T23:47:55.689Z,98047.56
2018-07-06T23:50:24.681Z,97951.16
2018-07-06T23:52:53.222Z,97974.50
2018-07-06T23:55:21.742Z,97983.64
2018-07-06T23:57:50.651Z,97951.16
